createdAt,value
2023-11-17T00:01:22.443Z,6.07
2023-11-17T00:03:32.558Z,4.35
2023-11-17T00:05:41.665Z,4.32
2023-11-17T00:07:53.930Z,4.18
2023-11-17T00:09:57.826Z,5.00
2023-11-17T00:12:07.294Z,3.90
2023-11-17T00:14:15.181Z,4.72
2023-11-17T00:18:36.688Z,4.15
2023-11-17T00:20:43.310Z,4.63
2023-11-17T00:22:54.836Z,5.15
2023-11-17T00:25:00.333Z,4.60
2023-11-17T00:27:08.147Z,5.38
2023-11-17T00:29:22.283Z,5.05
2023-11-17T00:31:30.714Z,5.75
2023-11-17T00:33:36.278Z,4.80
2023-11-17T00:35:41.973Z,5.93
2023-11-17T00:37:52.654Z,4.90
2023-11-17T00:39:56.342Z,4.68
2023-11-17T00:42:03.695Z,4.95
2023-11-17T00:44:13.001Z,3.45
2023-11-17T00:46:16.483Z,3.47
2023-11-17T00:48:24.275Z,3.50
2023-11-17T00:50:51.456Z,3.53
2023-11-17T00:53:05.966Z,3.63
2023-11-17T00:55:14.369Z,3.92
2023-11-17T00:57:22.740Z,3.55
2023-11-17T00:59:33.271Z,3.10
2023-11-17T01:01:39.660Z,3.40
2023-11-17T01:03:49.045Z,3.80
2023-11-17T01:05:58.035Z,4.00
2023-11-17T01:08:08.205Z,3.20
2023-11-17T01:10:22.615Z,3.22
2023-11-17T01:12:29.551Z,3.13
2023-11-17T01:14:35.047Z,2.97
2023-11-17T01:16:42.099Z,3.22
2023-11-17T01:18:47.624Z,2.83
2023-11-17T01:20:54.746Z,2.95
2023-11-17T01:23:13.201Z,2.63
2023-11-17T01:25:17.310Z,2.70
2023-11-17T01:27:22.808Z,2.60
2023-11-17T01:29:32.669Z,2.42
2023-11-17T01:31:39.987Z,2.63
2023-11-17T01:35:55.411Z,2.33
2023-11-17T01:38:02.779Z,2.38
2023-11-17T01:40:19.399Z,2.20
2023-11-17T01:42:28.852Z,2.15
2023-11-17T01:44:35.018Z,2.65
2023-11-17T01:46:43.208Z,2.58
2023-11-17T01:48:50.463Z,2.60
2023-11-17T01:50:57.148Z,2.70
2023-11-17T01:53:08.535Z,2.70
2023-11-17T01:55:19.975Z,2.45
2023-11-17T01:57:26.028Z,2.33
2023-11-17T01:59:38.742Z,2.75
2023-11-17T02:01:49.946Z,5.47
2023-11-17T02:03:57.194Z,6.43
2023-11-17T02:06:23.509Z,7.25
2023-11-17T02:08:44.808Z,6.95
2023-11-17T02:11:04.209Z,7.78
2023-11-17T02:13:20.684Z,8.02
2023-11-17T02:15:30.632Z,8.52
2023-11-17T02:17:43.978Z,7.53
2023-11-17T02:19:54.323Z,7.75
2023-11-17T02:22:05.794Z,7.40
2023-11-17T02:24:15.184Z,6.25
2023-11-17T02:26:35.899Z,7.03
2023-11-17T02:28:53.793Z,7.05
2023-11-17T02:31:16.751Z,6.10
2023-11-17T02:33:24.132Z,6.28
2023-11-17T02:35:35.641Z,6.90
2023-11-17T02:37:41.465Z,6.43
2023-11-17T02:39:47.394Z,6.60
2023-11-17T02:41:58.161Z,7.25
2023-11-17T02:44:16.116Z,5.55
2023-11-17T02:46:26.497Z,6.68
2023-11-17T02:48:32.654Z,6.20
2023-11-17T02:51:04.938Z,6.65
2023-11-17T02:53:20.715Z,6.45
2023-11-17T02:55:24.436Z,7.28
2023-11-17T02:57:32.676Z,6.78
2023-11-17T02:59:40.767Z,7.15
2023-11-17T03:01:52.313Z,6.50
2023-11-17T03:03:55.807Z,6.57
2023-11-17T03:06:02.013Z,7.57
2023-11-17T03:08:15.872Z,6.85
2023-11-17T03:10:25.519Z,7.10
2023-11-17T03:12:32.527Z,7.45
2023-11-17T03:14:40.938Z,6.88
2023-11-17T03:16:51.304Z,7.00
2023-11-17T03:18:57.174Z,6.45
2023-11-17T03:21:03.555Z,6.80
2023-11-17T03:23:09.816Z,6.90
2023-11-17T03:25:23.272Z,6.38
2023-11-17T03:27:29.064Z,7.20
2023-11-17T03:29:42.558Z,6.85
2023-11-17T03:31:54.816Z,7.00
2023-11-17T03:34:02.594Z,6.75
2023-11-17T03:36:09.698Z,6.90
2023-11-17T03:38:16.269Z,7.97
2023-11-17T03:40:34.784Z,6.82
2023-11-17T03:42:40.797Z,6.32
2023-11-17T03:44:47.167Z,6.03
2023-11-17T03:47:01.369Z,6.18
2023-11-17T03:49:22.063Z,6.55
2023-11-17T03:51:27.887Z,6.47
2023-11-17T03:53:36.059Z,7.03
2023-11-17T03:55:41.782Z,7.38
2023-11-17T03:57:50.516Z,6.95
2023-11-17T04:00:01.040Z,6.65
2023-11-17T04:02:20.098Z,5.80
2023-11-17T04:04:27.482Z,6.80
2023-11-17T04:06:35.967Z,6.50
2023-11-17T04:08:39.693Z,6.32
2023-11-17T04:10:51.688Z,6.18
2023-11-17T04:12:57.691Z,6.45
2023-11-17T04:15:06.671Z,5.50
2023-11-17T04:17:15.135Z,5.75
2023-11-17T04:19:30.687Z,6.05
2023-11-17T04:21:38.584Z,6.18
2023-11-17T04:23:44.537Z,6.43
2023-11-17T04:25:49.075Z,5.45
2023-11-17T04:27:55.390Z,5.75
2023-11-17T04:30:08.414Z,5.72
2023-11-17T04:32:15.483Z,6.00
2023-11-17T04:34:23.641Z,5.53
2023-11-17T04:36:29.166Z,5.50
2023-11-17T04:38:35.868Z,4.97
2023-11-17T04:40:41.323Z,5.10
2023-11-17T04:42:48.268Z,5.07
2023-11-17T04:45:03.131Z,5.35
2023-11-17T04:47:11.341Z,5.20
2023-11-17T04:49:28.759Z,4.82
2023-11-17T04:51:34.831Z,5.13
2023-11-17T04:53:40.683Z,4.85
2023-11-17T04:55:45.578Z,5.05
2023-11-17T04:57:51.459Z,4.68
2023-11-17T05:00:01.003Z,4.82
2023-11-17T05:02:07.050Z,4.97
2023-11-17T05:04:14.672Z,4.70
2023-11-17T05:06:29.617Z,4.40
2023-11-17T05:08:35.317Z,4.22
2023-11-17T05:10:57.373Z,4.43
2023-11-17T05:13:00.979Z,4.75
2023-11-17T05:15:08.704Z,4.50
2023-11-17T05:17:16.528Z,4.28
2023-11-17T05:19:26.299Z,6.30
2023-11-17T05:21:35.936Z,5.15
2023-11-17T05:23:39.964Z,5.72
2023-11-17T05:25:47.193Z,5.78
2023-11-17T05:27:53.093Z,5.90
2023-11-17T05:29:58.267Z,6.32
2023-11-17T05:32:11.417Z,5.43
2023-11-17T05:34:18.771Z,5.97
2023-11-17T05:36:25.316Z,6.18
2023-11-17T05:38:34.661Z,6.90
2023-11-17T05:40:50.275Z,6.03
2023-11-17T05:42:55.044Z,6.75
2023-11-17T05:45:01.691Z,6.53
2023-11-17T05:47:07.777Z,6.60
2023-11-17T05:49:21.957Z,6.25
2023-11-17T05:51:29.311Z,6.13
2023-11-17T05:53:39.146Z,6.65
2023-11-17T05:55:46.021Z,6.35
2023-11-17T05:57:51.921Z,6.43
2023-11-17T06:00:10.198Z,5.80
2023-11-17T06:02:20.090Z,5.93
2023-11-17T06:04:25.868Z,5.38
2023-11-17T06:06:34.041Z,5.00
2023-11-17T06:08:44.716Z,5.70
2023-11-17T06:10:52.208Z,5.40
2023-11-17T06:12:59.928Z,5.87
2023-11-17T06:15:13.256Z,5.95
2023-11-17T06:17:18.776Z,5.72
2023-11-17T06:19:30.818Z,4.90
2023-11-17T06:21:38.221Z,5.00
2023-11-17T06:23:46.873Z,4.80
2023-11-17T06:25:54.559Z,4.55
2023-11-17T06:27:57.484Z,4.32
2023-11-17T06:30:14.108Z,4.75
2023-11-17T06:32:21.480Z,4.90
2023-11-17T06:34:27.700Z,5.63
2023-11-17T06:36:41.117Z,5.57
2023-11-17T06:38:51.280Z,5.43
2023-11-17T06:40:57.404Z,5.82
2023-11-17T06:43:02.901Z,4.65
2023-11-17T06:45:13.018Z,4.25
2023-11-17T06:47:20.148Z,4.93
2023-11-17T06:49:33.081Z,4.60
2023-11-17T06:51:39.808Z,5.03
2023-11-17T06:53:45.067Z,5.03
2023-11-17T06:55:58.196Z,5.00
2023-11-17T06:58:09.432Z,4.53
2023-11-17T07:00:23.413Z,5.00
2023-11-17T07:02:26.345Z,4.93
2023-11-17T07:04:34.489Z,4.55
2023-11-17T07:06:43.306Z,4.68
2023-11-17T07:08:47.989Z,4.90
2023-11-17T07:11:11.658Z,5.38
2023-11-17T07:13:18.442Z,4.97
2023-11-17T07:15:26.276Z,4.35
2023-11-17T07:17:29.689Z,4.53
2023-11-17T07:19:37.340Z,4.78
2023-11-17T07:21:41.042Z,4.70
2023-11-17T07:24:02.183Z,4.55
2023-11-17T07:26:21.219Z,4.50
2023-11-17T07:28:27.598Z,4.78
2023-11-17T07:30:49.263Z,4.13
2023-11-17T07:32:55.431Z,5.18
2023-11-17T07:34:58.960Z,4.88
2023-11-17T07:37:04.922Z,4.60
2023-11-17T07:39:21.083Z,5.53
2023-11-17T07:41:30.001Z,4.70
2023-11-17T07:43:38.170Z,4.78
2023-11-17T07:45:50.249Z,5.80
2023-11-17T07:47:56.401Z,5.30
2023-11-17T07:50:09.049Z,5.20
2023-11-17T07:52:18.039Z,5.90
2023-11-17T07:54:26.441Z,5.65
2023-11-17T07:56:37.311Z,4.78
2023-11-17T07:58:43.630Z,4.65
2023-11-17T08:00:52.240Z,4.72
2023-11-17T08:02:55.752Z,5.18
2023-11-17T08:05:13.580Z,8.98
2023-11-17T08:07:19.211Z,7.70
2023-11-17T08:09:43.949Z,7.10
2023-11-17T08:11:52.840Z,5.53
2023-11-17T08:13:55.986Z,4.88
2023-11-17T08:16:01.919Z,5.03
2023-11-17T08:18:10.168Z,4.80
2023-11-17T08:20:33.055Z,6.40
2023-11-17T08:22:35.924Z,23.23
2023-11-17T08:24:42.346Z,18.15
2023-11-17T08:26:45.771Z,8.88
2023-11-17T08:29:00.676Z,4.82
2023-11-17T08:31:06.182Z,4.95
2023-11-17T08:33:15.392Z,4.35
2023-11-17T08:35:22.482Z,3.70
2023-11-17T08:37:34.343Z,4.33
2023-11-17T08:39:39.858Z,3.85
2023-11-17T08:42:03.445Z,3.80
2023-11-17T08:44:11.843Z,3.85
2023-11-17T08:46:29.957Z,4.15
2023-11-17T08:48:35.573Z,4.75
2023-11-17T08:50:51.932Z,4.80
2023-11-17T08:52:59.389Z,5.38
2023-11-17T08:55:05.928Z,17.92
2023-11-17T08:57:14.344Z,17.63
2023-11-17T08:59:46.911Z,15.52
2023-11-17T09:01:54.091Z,10.02
2023-11-17T09:04:02.906Z,7.22
2023-11-17T09:06:09.738Z,6.22
2023-11-17T09:08:12.757Z,5.97
2023-11-17T09:10:37.997Z,4.90
2023-11-17T09:12:47.757Z,5.25
2023-11-17T09:14:57.674Z,5.50
2023-11-17T09:17:08.824Z,5.65
2023-11-17T09:19:36.276Z,6.10
2023-11-17T09:21:43.415Z,5.78
2023-11-17T09:23:48.962Z,5.75
2023-11-17T09:25:56.664Z,5.68
2023-11-17T09:28:04.029Z,5.72
2023-11-17T09:30:22.708Z,5.30
2023-11-17T09:32:25.715Z,5.22
2023-11-17T09:34:31.508Z,5.40
2023-11-17T09:36:37.811Z,5.60
2023-11-17T09:38:45.464Z,4.95
2023-11-17T09:40:52.265Z,5.50
2023-11-17T09:43:11.279Z,5.40
2023-11-17T09:45:21.287Z,5.30
2023-11-17T09:47:30.063Z,5.53
2023-11-17T09:49:45.452Z,5.43
2023-11-17T09:51:51.750Z,5.43
2023-11-17T09:54:00.078Z,5.22
2023-11-17T09:56:06.908Z,5.63
2023-11-17T09:58:13.756Z,5.05
2023-11-17T10:00:40.063Z,4.28
2023-11-17T10:02:43.609Z,3.95
2023-11-17T10:04:49.468Z,3.22
2023-11-17T10:06:55.414Z,3.22
2023-11-17T10:09:14.965Z,3.53
2023-11-17T10:11:24.958Z,3.30
2023-11-17T10:13:33.156Z,2.95
2023-11-17T10:15:46.055Z,3.20
2023-11-17T10:17:51.402Z,3.22
2023-11-17T10:20:01.240Z,2.90
2023-11-17T10:22:08.830Z,3.10
2023-11-17T10:24:15.003Z,2.42
2023-11-17T10:26:23.711Z,2.53
2023-11-17T10:28:31.731Z,2.35
2023-11-17T10:30:52.033Z,1.98
2023-11-17T10:33:14.369Z,2.42
2023-11-17T10:35:27.833Z,2.30
2023-11-17T10:37:35.940Z,2.55
2023-11-17T10:40:05.369Z,2.70
2023-11-17T10:42:28.152Z,2.67
2023-11-17T10:44:39.307Z,2.95
2023-11-17T10:46:53.634Z,2.88
2023-11-17T10:49:02.346Z,2.63
2023-11-17T10:51:06.639Z,3.00
2023-11-17T10:53:25.504Z,2.70
2023-11-17T10:55:35.999Z,2.70
2023-11-17T10:57:42.393Z,2.97
2023-11-17T10:59:56.183Z,2.80
2023-11-17T11:02:10.750Z,2.70
2023-11-17T11:04:29.349Z,3.03
2023-11-17T11:06:35.036Z,3.42
2023-11-17T11:08:45.669Z,2.85
2023-11-17T11:11:18.744Z,3.05
2023-11-17T11:13:31.007Z,2.45
2023-11-17T11:15:38.588Z,3.03
2023-11-17T11:18:07.418Z,2.70
2023-11-17T11:20:23.325Z,3.13
2023-11-17T11:22:30.736Z,3.38
2023-11-17T11:24:41.446Z,2.92
2023-11-17T11:26:45.765Z,2.80
2023-11-17T11:28:52.108Z,2.72
2023-11-17T11:30:59.299Z,2.97
2023-11-17T11:33:09.624Z,2.50
2023-11-17T11:35:16.945Z,2.60
2023-11-17T11:37:34.089Z,2.50
2023-11-17T11:39:40.216Z,2.30
2023-11-17T11:41:46.954Z,3.00
2023-11-17T11:43:55.998Z,2.00
2023-11-17T11:45:59.734Z,2.40
2023-11-17T11:48:09.480Z,2.40
2023-11-17T11:50:26.936Z,2.20
2023-11-17T11:52:37.916Z,2.50
2023-11-17T11:54:46.647Z,2.22
2023-11-17T11:56:53.183Z,2.83
2023-11-17T11:59:04.422Z,2.40
2023-11-17T12:01:11.630Z,2.35
2023-11-17T12:03:20.689Z,2.28
2023-11-17T12:05:31.920Z,2.90
2023-11-17T12:07:38.085Z,2.60
2023-11-17T12:09:45.417Z,2.50
2023-11-17T12:11:52.522Z,2.75
2023-11-17T12:14:09.332Z,2.42
2023-11-17T12:16:20.219Z,2.28
2023-11-17T12:18:29.704Z,2.28
2023-11-17T12:20:45.553Z,3.15
2023-11-17T12:23:03.444Z,2.53
2023-11-17T12:25:13.080Z,2.80
2023-11-17T12:27:22.647Z,2.40
2023-11-17T12:29:43.471Z,2.63
2023-11-17T12:31:53.366Z,2.67
2023-11-17T12:34:03.410Z,2.47
2023-11-17T12:36:09.553Z,2.25
2023-11-17T12:38:17.209Z,3.08
2023-11-17T12:40:33.520Z,2.78
2023-11-17T12:42:39.197Z,2.50
2023-11-17T12:44:44.945Z,2.65
2023-11-17T12:46:59.559Z,2.60
2023-11-17T12:49:06.767Z,2.25
2023-11-17T12:51:13.149Z,2.50
2023-11-17T12:53:18.738Z,2.30
2023-11-17T12:55:24.690Z,2.22
2023-11-17T12:57:30.532Z,11.45
2023-11-17T12:59:43.385Z,5.60
2023-11-17T13:01:48.924Z,7.13
2023-11-17T13:03:57.654Z,3.90
2023-11-17T13:06:06.384Z,2.90
2023-11-17T13:08:13.260Z,2.78
2023-11-17T13:10:34.520Z,2.63
2023-11-17T13:12:40.104Z,2.38
2023-11-17T13:14:46.009Z,2.40
2023-11-17T13:16:52.164Z,2.45
2023-11-17T13:19:21.420Z,2.13
2023-11-17T13:21:32.212Z,2.50
2023-11-17T13:23:38.901Z,2.00
2023-11-17T13:26:07.733Z,2.45
2023-11-17T13:28:16.177Z,2.33
2023-11-17T13:30:30.196Z,1.92
2023-11-17T13:32:52.311Z,2.10
2023-11-17T13:34:59.029Z,2.33
2023-11-17T13:37:08.477Z,1.77
2023-11-17T13:39:19.916Z,2.00
2023-11-17T13:41:28.600Z,2.33
2023-11-17T13:43:35.320Z,2.40
2023-11-17T13:45:44.134Z,2.40
2023-11-17T13:48:06.485Z,2.30
2023-11-17T13:50:21.697Z,2.20
2023-11-17T13:52:30.960Z,2.22
2023-11-17T13:54:36.498Z,2.35
2023-11-17T13:56:40.800Z,2.30
2023-11-17T13:58:47.161Z,2.15
2023-11-17T14:00:53.090Z,2.17
2023-11-17T14:03:09.467Z,2.60
2023-11-17T14:05:16.565Z,2.42
2023-11-17T14:07:24.738Z,2.58
2023-11-17T14:09:50.595Z,2.10
2023-11-17T14:11:58.861Z,2.65
2023-11-17T14:14:06.044Z,2.70
2023-11-17T14:16:13.010Z,2.60
2023-11-17T14:18:19.464Z,2.78
2023-11-17T14:20:41.979Z,2.70
2023-11-17T14:22:48.183Z,3.00
2023-11-17T14:24:57.299Z,2.70
2023-11-17T14:27:04.733Z,2.70
2023-11-17T14:29:16.872Z,2.83
2023-11-17T14:31:22.987Z,2.60
2023-11-17T14:33:28.975Z,2.55
2023-11-17T14:35:36.316Z,2.88
2023-11-17T14:37:42.241Z,2.58
2023-11-17T14:39:48.085Z,3.03
2023-11-17T14:42:01.587Z,2.80
2023-11-17T14:44:09.293Z,2.67
2023-11-17T14:46:22.015Z,2.70
2023-11-17T14:48:35.365Z,3.15
2023-11-17T14:50:46.632Z,2.65
2023-11-17T14:52:54.060Z,2.75
2023-11-17T14:55:00.924Z,2.95
2023-11-17T14:57:13.070Z,2.70
2023-11-17T14:59:24.641Z,2.75
2023-11-17T15:01:32.677Z,2.63
2023-11-17T15:03:41.985Z,2.50
2023-11-17T15:05:49.068Z,2.60
2023-11-17T15:07:54.840Z,2.83
2023-11-17T15:10:02.704Z,2.60
2023-11-17T15:12:13.297Z,2.97
2023-11-17T15:14:22.031Z,2.97
2023-11-17T15:16:30.818Z,2.60
2023-11-17T15:18:39.645Z,2.90
2023-11-17T15:22:59.432Z,2.60
2023-11-17T15:25:04.903Z,2.90
2023-11-17T15:27:15.946Z,2.88
2023-11-17T15:29:32.247Z,3.08
2023-11-17T15:31:38.111Z,2.40
2023-11-17T15:33:43.723Z,2.47
2023-11-17T15:35:47.249Z,2.58
2023-11-17T15:37:53.194Z,2.63
2023-11-17T15:40:14.412Z,2.42
2023-11-17T15:42:22.549Z,2.85
2023-11-17T15:44:29.633Z,3.00
2023-11-17T15:46:39.290Z,3.03
2023-11-17T15:48:53.891Z,2.95
2023-11-17T15:51:05.037Z,2.30
2023-11-17T15:53:10.806Z,2.22
2023-11-17T15:55:15.625Z,1.90
2023-11-17T15:57:25.133Z,2.40
2023-11-17T15:59:37.989Z,3.80
2023-11-17T16:01:45.473Z,4.32
2023-11-17T16:03:48.529Z,4.30
2023-11-17T16:05:54.529Z,5.18
2023-11-17T16:08:00.893Z,5.53
2023-11-17T16:10:16.582Z,5.18
2023-11-17T16:12:24.597Z,5.05
2023-11-17T16:14:30.641Z,5.32
2023-11-17T16:16:38.375Z,5.20
2023-11-17T16:18:41.770Z,4.47
2023-11-17T16:20:49.807Z,4.97
2023-11-17T16:23:01.941Z,6.72
2023-11-17T16:25:14.334Z,4.70
2023-11-17T16:27:19.482Z,4.85
2023-11-17T16:29:45.703Z,4.68
2023-11-17T16:31:51.976Z,4.13
2023-11-17T16:33:59.112Z,3.45
2023-11-17T16:36:10.815Z,3.47
2023-11-17T16:38:20.099Z,4.30
2023-11-17T16:40:31.775Z,3.90
2023-11-17T16:42:39.828Z,4.22
2023-11-17T16:44:49.367Z,4.65
2023-11-17T16:46:56.422Z,3.70
2023-11-17T16:49:02.410Z,4.05
2023-11-17T16:51:09.977Z,3.85
2023-11-17T16:53:19.199Z,3.45
2023-11-17T16:55:24.184Z,3.78
2023-11-17T16:57:38.437Z,3.03
2023-11-17T16:59:52.719Z,3.25
2023-11-17T17:01:58.908Z,3.35
2023-11-17T17:04:04.592Z,4.18
2023-11-17T17:06:18.453Z,3.80
2023-11-17T17:08:27.484Z,3.75
2023-11-17T17:10:44.357Z,3.35
2023-11-17T17:12:50.809Z,4.70
2023-11-17T17:14:59.451Z,5.30
2023-11-17T17:17:08.268Z,4.55
2023-11-17T17:19:15.601Z,4.78
2023-11-17T17:21:22.898Z,6.88
2023-11-17T17:23:28.848Z,7.28
2023-11-17T17:25:38.543Z,5.03
2023-11-17T17:27:47.191Z,6.78
2023-11-17T17:29:53.054Z,5.05
2023-11-17T17:32:01.359Z,7.15
2023-11-17T17:34:09.263Z,7.88
2023-11-17T17:36:22.090Z,7.90
2023-11-17T17:38:28.396Z,6.15
2023-11-17T17:40:49.150Z,5.85
2023-11-17T17:42:56.225Z,6.70
2023-11-17T17:45:02.124Z,6.22
2023-11-17T17:47:10.598Z,6.40
2023-11-17T17:49:18.098Z,6.45
2023-11-17T17:51:24.162Z,8.82
2023-11-17T17:53:29.864Z,7.70
2023-11-17T17:55:35.449Z,7.65
2023-11-17T17:57:41.309Z,7.07
2023-11-17T17:59:56.154Z,7.82
2023-11-17T18:02:04.301Z,8.57
2023-11-17T18:04:13.333Z,7.25
2023-11-17T18:06:18.985Z,6.90
2023-11-17T18:08:25.175Z,7.47
2023-11-17T18:10:36.365Z,7.05
2023-11-17T18:12:41.108Z,7.95
2023-11-17T18:14:47.573Z,10.50
2023-11-17T18:16:53.985Z,8.52
2023-11-17T18:19:10.130Z,10.43
2023-11-17T18:21:19.010Z,13.77
2023-11-17T18:23:26.148Z,13.43
2023-11-17T18:25:32.055Z,7.15
2023-11-17T18:27:38.901Z,5.78
2023-11-17T18:29:47.153Z,6.03
2023-11-17T18:31:52.716Z,6.20
2023-11-17T18:34:02.172Z,6.20
2023-11-17T18:36:12.104Z,5.95
2023-11-17T18:38:17.906Z,6.32
2023-11-17T18:40:41.289Z,6.22
2023-11-17T18:42:44.768Z,6.05
2023-11-17T18:44:51.382Z,7.10
2023-11-17T18:46:59.457Z,7.10
2023-11-17T18:49:12.604Z,7.55
2023-11-17T18:51:23.484Z,8.90
2023-11-17T18:53:31.626Z,6.13
2023-11-17T18:55:39.568Z,6.63
2023-11-17T18:59:55.194Z,6.28
2023-11-17T19:02:00.950Z,5.20
2023-11-17T19:04:09.679Z,5.75
2023-11-17T19:06:17.057Z,5.00
2023-11-17T19:08:33.616Z,5.68
2023-11-17T19:10:42.458Z,7.55
2023-11-17T19:12:48.607Z,7.43
2023-11-17T19:14:56.243Z,6.28
2023-11-17T19:17:01.848Z,6.82
2023-11-17T19:19:16.489Z,7.03
2023-11-17T19:21:22.990Z,12.52
2023-11-17T19:23:32.241Z,10.27
2023-11-17T19:25:37.945Z,9.52
2023-11-17T19:27:45.704Z,10.32
2023-11-17T19:29:54.819Z,10.00
2023-11-17T19:32:01.277Z,9.82
2023-11-17T19:34:11.225Z,10.00
2023-11-17T19:36:23.684Z,10.60
2023-11-17T19:38:32.549Z,12.52
2023-11-17T19:40:43.712Z,10.73
2023-11-17T19:42:50.675Z,10.30
2023-11-17T19:44:54.080Z,10.57
2023-11-17T19:47:02.335Z,11.02
2023-11-17T19:49:25.796Z,10.48
2023-11-17T19:51:32.549Z,9.88
2023-11-17T19:53:40.992Z,9.27
2023-11-17T19:55:48.715Z,10.02
2023-11-17T19:57:55.026Z,10.00
2023-11-17T19:59:58.004Z,9.63
2023-11-17T20:02:17.810Z,8.85
2023-11-17T20:04:24.839Z,8.85
2023-11-17T20:06:31.718Z,8.60
2023-11-17T20:08:39.798Z,8.40
2023-11-17T20:10:46.886Z,9.07
2023-11-17T20:12:53.858Z,8.07
2023-11-17T20:15:00.048Z,8.53
2023-11-17T20:17:14.069Z,9.10
2023-11-17T20:19:24.396Z,8.82
2023-11-17T20:21:30.495Z,8.57
2023-11-17T20:23:36.264Z,8.85
2023-11-17T20:25:46.033Z,8.70
2023-11-17T20:27:50.726Z,8.70
2023-11-17T20:29:57.262Z,8.07
2023-11-17T20:32:11.152Z,8.40
2023-11-17T20:34:19.426Z,7.68
2023-11-17T20:36:26.135Z,7.95
2023-11-17T20:38:31.735Z,8.32
2023-11-17T20:40:40.377Z,8.10
2023-11-17T20:42:52.147Z,7.85
2023-11-17T20:44:55.835Z,8.45
2023-11-17T20:47:01.627Z,9.60
2023-11-17T20:49:14.489Z,8.85
2023-11-17T20:51:21.368Z,9.45
2023-11-17T20:53:27.247Z,9.90
2023-11-17T20:55:32.964Z,8.95
2023-11-17T20:57:37.068Z,8.65
2023-11-17T20:59:50.355Z,8.75
2023-11-17T21:01:58.202Z,8.88
2023-11-17T21:04:02.502Z,9.20
2023-11-17T21:06:10.451Z,8.27
2023-11-17T21:10:34.706Z,9.30
2023-11-17T21:12:38.507Z,8.68
2023-11-17T21:14:46.971Z,9.00
2023-11-17T21:16:53.109Z,9.10
2023-11-17T21:19:02.933Z,8.82
2023-11-17T21:21:12.289Z,8.52
2023-11-17T21:23:18.196Z,8.68
2023-11-17T21:25:23.393Z,9.10
2023-11-17T21:27:30.485Z,8.57
2023-11-17T21:29:37.660Z,9.40
2023-11-17T21:31:49.940Z,9.57
2023-11-17T21:33:55.916Z,9.90
2023-11-17T21:36:10.640Z,10.15
2023-11-17T21:38:16.417Z,9.27
2023-11-17T21:40:26.579Z,8.60
2023-11-17T21:42:32.488Z,8.15
2023-11-17T21:44:40.786Z,8.52
2023-11-17T21:46:51.354Z,9.48
2023-11-17T21:48:58.765Z,9.45
2023-11-17T21:51:04.897Z,9.48
2023-11-17T21:53:12.191Z,9.30
2023-11-17T21:55:19.611Z,8.85
2023-11-17T21:57:30.729Z,9.00
2023-11-17T21:59:39.235Z,8.73
2023-11-17T22:01:48.526Z,7.78
2023-11-17T22:03:58.088Z,8.90
2023-11-17T22:06:01.574Z,9.00
2023-11-17T22:08:07.418Z,8.82
2023-11-17T22:10:14.621Z,8.35
2023-11-17T22:12:20.360Z,7.95
2023-11-17T22:14:26.160Z,7.28
2023-11-17T22:16:32.270Z,9.18
2023-11-17T22:18:40.162Z,7.50
2023-11-17T22:20:50.250Z,8.10
2023-11-17T22:22:56.394Z,8.25
2023-11-17T22:25:34.047Z,7.85
2023-11-17T22:27:37.023Z,7.97
2023-11-17T22:29:46.498Z,8.15
2023-11-17T22:31:54.438Z,8.23
2023-11-17T22:38:21.415Z,6.65
2023-11-17T22:40:38.708Z,7.38
2023-11-17T22:42:46.856Z,7.28
2023-11-17T22:44:53.675Z,6.88
2023-11-17T22:47:00.177Z,7.05
2023-11-17T22:49:10.937Z,7.00
2023-11-17T22:51:27.986Z,6.85
2023-11-17T22:53:35.662Z,6.75
2023-11-17T22:55:42.459Z,6.68
2023-11-17T22:57:49.120Z,9.98
2023-11-17T22:59:58.142Z,6.78
2023-11-17T23:02:09.686Z,7.55
2023-11-17T23:04:14.960Z,6.85
2023-11-17T23:06:23.887Z,6.65
2023-11-17T23:08:30.925Z,7.28
2023-11-17T23:10:44.223Z,7.85
2023-11-17T23:12:49.024Z,7.70
2023-11-17T23:14:54.534Z,7.38
2023-11-17T23:17:04.616Z,7.47
2023-11-17T23:19:27.950Z,6.80
2023-11-17T23:21:37.205Z,7.28
2023-11-17T23:23:47.444Z,7.07
2023-11-17T23:25:53.556Z,7.32
2023-11-17T23:28:02.500Z,6.38
2023-11-17T23:30:09.657Z,7.05
2023-11-17T23:32:16.105Z,6.75
2023-11-17T23:34:22.389Z,6.57
2023-11-17T23:36:38.297Z,6.43
2023-11-17T23:38:44.351Z,7.65
2023-11-17T23:40:51.894Z,7.55
2023-11-17T23:42:56.507Z,7.50
2023-11-17T23:45:03.322Z,7.13
2023-11-17T23:47:10.795Z,6.85
2023-11-17T23:49:26.496Z,7.47
2023-11-17T23:51:33.365Z,7.78
2023-11-17T23:53:41.816Z,6.28
2023-11-17T23:55:47.255Z,7.75
2023-11-17T23:57:52.760Z,7.55
2023-11-17T23:59:58.227Z,6.65
